Lynchburg, MO (65543)

8:40 PM CDT on May 19, 2019 (GMT -0500)
Evening Shade, NW Texas Cnty, MO | | Change Station

Elev 1380 ft 37.56 °N, 92.14 °W | Updated 4 seconds ago

Clear
Clear
65.1 °F
Feels Like 65.1 °F
N
2.5
Wind Variable Wind from NNW
Gusts 4.9 mph

Today
High -- | Low -- °F
--% Chance of Precip.
Yesterday
High -- | Low -- °F
Precip. -- in
Pressure 29.92 in
Visibility 10.0 miles
Clouds Clear
Dew Point 44 °F
Humidity 47%
Rainfall 0.00 in
Snow Depth Not available.
5:57 AM 8:14 PM
Full, 98% visible
METAR KTBN 200056Z AUTO 27005KT 10SM CLR 20/12 A2993 RMK AO2 SLP131 T01950115 $
Pressure 29.92 in
Visibility 10.0 miles
Clouds Clear
Dew Point 44 °F
Humidity 47%
Rainfall 0.00 in
Snow Depth Not available.
5:57 AM 8:14 PM
Full, 98% visible
METAR KTBN 200056Z AUTO 27005KT 10SM CLR 20/12 A2993 RMK AO2 SLP131 T01950115 $

Get Severe Weather Alerts

Thanks for signing up!

Be on the lookout for a verification email in your inbox.

You'll start receiving the daily forecast at 6 AM.

×

10-Day Weather Forecast

Almanac

Astronomy

May. 19, 2019 Rise Set
Actual Time
Civil Twilight
Nautical Twilight
Astronomical Twilight
Moon
Length of Visible Light
Length of Day
Tomorrow will be .
, % of the Moon is Illuminated

Today's Extremes

State Highs State Lows

Community

WunderPhotos

Category 6

Welcome to Category 6. This is the collective home for Weather Underground's featured writeups by Dr. Jeff Masters (right), Bob Henson (left), Chris Burt, and other regular contributors.

Nearby

Air Quality

  Air Quality AQ Index Pollutant
Not available.

Snow Depth

Station Depth Elevation

Earthquake Activity

City Distance Mag. Time & Date
Minimum magnitude displayed is 2.5.

Coastal Water Temperatures

Place Temperature

Stations

Nearby Weather Stations

Station Location Temp. Windchill Dew Point Humidity Wind Precip. Elev Updated Type
                   

Watches & Warnings

There are currently no watches in effect.